createdAt,value
2023-01-03T00:00:45.510Z,973.28
2023-01-03T00:01:51.343Z,973.41
2023-01-03T00:02:57.903Z,973.43
2023-01-03T00:04:04.030Z,973.47
2023-01-03T00:05:09.740Z,973.48
2023-01-03T00:06:15.493Z,973.49
2023-01-03T00:07:21.317Z,973.48
2023-01-03T00:08:26.992Z,973.44
2023-01-03T00:09:33.706Z,973.46
2023-01-03T00:10:39.580Z,973.47
2023-01-03T00:11:45.351Z,973.54
2023-01-03T00:12:51.066Z,973.57
2023-01-03T00:13:56.883Z,973.65
2023-01-03T00:15:02.582Z,973.73
2023-01-03T00:16:08.284Z,973.72
2023-01-03T00:17:14.354Z,973.69
2023-01-03T00:18:20.210Z,973.73
2023-01-03T00:19:25.936Z,973.80
2023-01-03T00:20:31.643Z,973.78
2023-01-03T00:21:37.413Z,973.76
2023-01-03T00:22:43.098Z,973.74
2023-01-03T00:23:48.800Z,973.73
2023-01-03T00:24:54.568Z,973.66
2023-01-03T00:26:00.265Z,973.63
2023-01-03T00:27:06.035Z,973.66
2023-01-03T00:28:11.793Z,973.71
2023-01-03T00:29:17.647Z,973.69
2023-01-03T00:30:24.415Z,973.73
2023-01-03T00:31:30.587Z,973.67
2023-01-03T00:32:36.323Z,973.72
2023-01-03T00:33:42.071Z,973.73
2023-01-03T00:34:47.781Z,973.71
2023-01-03T00:35:53.763Z,973.69
2023-01-03T00:36:59.624Z,973.68
2023-01-03T00:38:05.331Z,973.58
2023-01-03T00:39:11.122Z,973.57
2023-01-03T00:40:16.883Z,973.59
2023-01-03T00:41:22.943Z,973.53
2023-01-03T00:42:28.673Z,973.49
2023-01-03T00:43:34.564Z,973.58
2023-01-03T00:44:40.418Z,973.57
2023-01-03T00:45:46.956Z,973.60
2023-01-03T00:46:52.788Z,973.56
2023-01-03T00:47:58.595Z,973.47
2023-01-03T00:49:04.286Z,973.57
2023-01-03T00:50:10.028Z,973.52
2023-01-03T00:51:15.808Z,973.50
2023-01-03T00:52:21.600Z,973.44
2023-01-03T00:53:27.369Z,973.52
2023-01-03T00:54:33.368Z,973.52
2023-01-03T00:55:39.222Z,973.52
2023-01-03T00:56:45.116Z,973.53
2023-01-03T00:57:50.826Z,973.57
2023-01-03T00:58:58.148Z,973.52
2023-01-03T01:00:04.112Z,973.50
2023-01-03T01:01:09.831Z,973.46
2023-01-03T01:02:15.806Z,973.53
2023-01-03T01:03:21.748Z,973.52
2023-01-03T01:04:27.590Z,973.45
2023-01-03T01:05:33.346Z,973.49
2023-01-03T01:06:39.070Z,973.54
2023-01-03T01:07:44.800Z,973.52
2023-01-03T01:08:50.548Z,973.54
2023-01-03T01:09:56.292Z,973.57
2023-01-03T01:11:02.100Z,973.57
2023-01-03T01:12:07.803Z,973.57
2023-01-03T01:13:13.680Z,973.52
2023-01-03T01:14:19.389Z,973.53
2023-01-03T01:15:25.182Z,973.52
2023-01-03T01:16:31.077Z,973.48
2023-01-03T01:17:36.919Z,973.54
2023-01-03T01:18:42.633Z,973.56
2023-01-03T01:19:48.490Z,973.51
2023-01-03T01:20:54.287Z,973.54
2023-01-03T01:22:00.048Z,973.48
2023-01-03T01:23:05.872Z,973.55
2023-01-03T01:24:15.931Z,973.52
2023-01-03T01:25:23.452Z,973.56
2023-01-03T01:26:29.684Z,973.50
2023-01-03T01:27:35.457Z,973.55
2023-01-03T01:28:41.219Z,973.52
2023-01-03T01:29:46.983Z,973.51
2023-01-03T01:30:52.767Z,973.51
2023-01-03T01:31:58.590Z,973.64
2023-01-03T01:33:04.351Z,973.64
2023-01-03T01:34:10.196Z,973.66
2023-01-03T01:35:15.938Z,973.66
2023-01-03T01:36:21.798Z,973.73
2023-01-03T01:37:27.619Z,973.78
2023-01-03T01:38:33.292Z,973.73
2023-01-03T01:39:39.270Z,973.71
2023-01-03T01:40:44.899Z,973.69
2023-01-03T01:41:50.641Z,973.68
2023-01-03T01:42:56.302Z,973.68
2023-01-03T01:44:02.021Z,973.62
2023-01-03T01:45:07.680Z,973.70
2023-01-03T01:46:13.355Z,973.63
2023-01-03T01:47:19.187Z,973.70
2023-01-03T01:48:24.763Z,973.63
2023-01-03T01:49:30.500Z,973.71
2023-01-03T01:50:36.244Z,973.69
2023-01-03T01:51:41.922Z,973.79
2023-01-03T01:52:47.670Z,973.82
2023-01-03T01:53:53.312Z,973.85
2023-01-03T01:54:59.129Z,973.84
2023-01-03T01:56:04.768Z,973.80
2023-01-03T01:57:10.391Z,973.77
2023-01-03T01:58:15.956Z,973.78
2023-01-03T01:59:21.501Z,973.79
2023-01-03T02:00:27.059Z,973.90
2023-01-03T02:01:32.665Z,973.81
2023-01-03T02:02:38.384Z,973.92
2023-01-03T02:03:44.077Z,973.81
2023-01-03T02:04:49.578Z,973.73
2023-01-03T02:05:55.104Z,973.79
2023-01-03T02:07:00.623Z,973.77
2023-01-03T02:08:06.134Z,973.68
2023-01-03T02:09:11.676Z,973.75
2023-01-03T02:10:17.204Z,973.70
2023-01-03T02:11:22.753Z,973.77
2023-01-03T02:12:28.271Z,973.75
2023-01-03T02:13:33.805Z,973.75
2023-01-03T02:14:39.373Z,973.76
2023-01-03T02:15:44.913Z,973.74
2023-01-03T02:16:50.419Z,973.75
2023-01-03T02:17:55.935Z,973.73
2023-01-03T02:19:01.718Z,973.78
2023-01-03T02:20:07.566Z,973.81
2023-01-03T02:21:19.634Z,973.80
2023-01-03T02:22:26.705Z,973.81
2023-01-03T02:23:32.234Z,973.86
2023-01-03T02:24:38.544Z,973.77
2023-01-03T02:25:44.124Z,973.84
2023-01-03T02:26:49.679Z,973.86
2023-01-03T02:27:55.135Z,973.85
2023-01-03T02:29:00.671Z,973.81
2023-01-03T02:30:06.224Z,973.80
2023-01-03T02:31:11.848Z,973.83
2023-01-03T02:32:17.334Z,973.82
